Carnival Pride — H3VU — position and weather

sailwx.info

Track history (hours):
 
Tides and Currents Weather Stations Pressure Air Temp Water Temp Dewpoint Dewpoint Depression Visibility Wind Speed Wind Dir Waves Ship Positions

Carnival Pride

Operator: Carnival Cruise Lines

Last reported at 2017-May-29 12:00 UTC. Time now 2017-May-29 17:11 UTC.
Position N 35°12' W 075°00'.

Type: Ship. MMSI: 354215000.

Wind from 270 at 25 knots

Barometer 1011.4 mb
Air temperature 24.0 ° C
Visibility: greater than 10.8 NM
Dewpoint 21.0 ° C
Water temperature 17.0 ° C

Date/timePositionNaut miles runAvg speedWind from/ knotsBaromVisibWave heightAir tempDewpointWater temp
2017-May-29 12:00N 35°12' W 075°00'6220.6 270 / 251011.410.8 24.021.017.0
2017-May-29 09:00N 36°12' W 075°18'3719.8 340 / 51009.1 5.4 19.017.417.0
2017-May-29 07:07N 36°43' W 075°42'419.7
2017-May-29 06:54N 36°47' W 075°45'718.8
2017-May-29 06:30N 36°52' W 075°52'815.3
2017-May-29 06:00N 36°57' W 075°59'714.5
2017-May-29 05:30N 37°03' W 076°05'9418.1
2017-May-29 00:19N 38°35' W 076°26'619.3
2017-May-28 23:59N 38°42' W 076°26'918.8
2017-May-28 23:30N 38°50' W 076°24'918.7
2017-May-28 23:00N 38°60' W 076°23'714.4
2017-May-28 22:30N 39°07' W 076°24'612.5
2017-May-28 22:00N 39°12' W 076°29'510.6
2017-May-28 21:30N 39°15' W 076°34'2 3.0
2017-May-28 20:59N 39°16' W 076°36'0 0.0
2017-May-28 20:29N 39°16' W 076°36'0 0.0
2017-May-28 19:41N 39°16' W 076°36'0 0.0
2017-May-28 19:29N 39°16' W 076°36'0 0.0
2017-May-28 18:53N 39°16' W 076°36'0 0.0
2017-May-28 18:26N 39°16' W 076°36'0 0.0
2017-May-28 17:59N 39°16' W 076°36'0 0.0
2017-May-28 17:29N 39°16' W 076°36'0 0.0
2017-May-28 16:56N 39°16' W 076°36'0 0.0
2017-May-28 16:29N 39°16' W 076°36'0 0.0
2017-May-28 15:59N 39°16' W 076°36'0 0.0
2017-May-28 15:23N 39°16' W 076°36'0 0.0
2017-May-28 14:59N 39°16' W 076°36'0 0.0
2017-May-28 14:29N 39°16' W 076°36'0 0.0
2017-May-28 13:28N 39°16' W 076°36'0 0.0
2017-May-28 12:55N 39°16' W 076°36'0 0.0
2017-May-28 12:28N 39°16' W 076°36'1 1.1
2017-May-28 12:00N 39°16' W 076°35'4 7.5
2017-May-28 11:30N 39°13' W 076°32'510.9
2017-May-28 11:00N 39°10' W 076°26'713.3
2017-May-28 10:30N 39°04' W 076°24'815.0
2017-May-28 10:01N 38°56' W 076°23'816.9
2017-May-28 09:30N 38°48' W 076°25'917.4
2017-May-28 09:01N 38°39' W 076°25'917.3
2017-May-28 08:30N 38°31' W 076°24'1018.5
2017-May-28 07:57N 38°21' W 076°19'818.7
2017-May-28 07:30N 38°14' W 076°15'918.4
2017-May-28 07:00N 38°05' W 076°13'918.3
2017-May-28 06:30N 37°56' W 076°10'4917.0
2017-May-28 03:37N 37°07' W 076°07'219.1
2017-May-28 03:30N 37°05' W 076°06'918.4
2017-May-28 03:00N 36°57' W 075°59'713.5
2017-May-28 02:30N 36°53' W 075°53'815.3
2017-May-28 02:00N 36°49' W 075°45'9018.0
2017-May-27 21:00N 35°24' W 075°06'629.3 240 / 271012.410.8 26.018.225.0
2017-May-27 20:47N 35°19' W 075°10'621.3
2017-May-27 20:30N 35°13' W 075°10'1121.7
2017-May-27 20:00N 35°02' W 075°10'1323.1
2017-May-27 19:26N 34°50' W 075°16'1023.9
2017-May-27 19:00N 34°40' W 075°20'1324.4
2017-May-27 18:30N 34°28' W 075°25'1324.6
2017-May-27 17:59N 34°17' W 075°32'1225.2
2017-May-27 17:31N 34°08' W 075°41'1325.7
2017-May-27 17:00N 33°58' W 075°51'1325.7
2017-May-27 16:30N 33°48' W 076°01'1425.0
2017-May-27 15:56N 33°38' W 076°12'1124.1
2017-May-27 15:28N 33°29' W 076°21'1123.3
2017-May-27 15:00N 33°21' W 076°30'2423.1
2017-May-27 13:56N 33°02' W 076°49'1022.2
2017-May-27 13:30N 32°55' W 076°56'1921.5
2017-May-27 12:38N 32°41' W 077°12'421.6
2017-May-27 12:26N 32°39' W 077°16'921.9
2017-May-27 12:00N 32°33' W 077°25'10642.9
2017-May-27 12:00N 32°24' W 077°30'4619.7 290 / 151016.610.8 25.017.027.0
2017-May-27 09:40N 31°57' W 078°14'824.0
2017-May-27 09:21N 31°52' W 078°21'3023.7
2017-May-27 08:06N 31°33' W 078°47'223.6
2017-May-27 07:59N 31°31' W 078°50'1924.0
2017-May-27 07:13N 31°19' W 079°06'524.4
2017-May-27 07:00N 31°15' W 079°09'2827.3
2017-May-27 06:00N 30°48' W 079°18'13923.1 240 / 121017.810.8 25.010.827.0
2017-May-27 00:00N 28°30' W 079°36'7324.3 070 / 81016.910.8 25.015.125.0
2017-May-26 21:00N 27°18' W 079°24'120 8.0 050 / 81016.510.8 27.019.325.0
2017-May-26 06:00N 26°00' W 077°42'9415.6 210 / 301015.610.8 27.024.127.0
2017-May-26 00:00N 25°24' W 076°06'113 7.5 200 / 171014.710.8 27.022.627.0
2017-May-25 09:00N 23°42' W 075°12'17018.9 170 / 151015.4 5.4 24.022.526.0
2017-May-25 00:00N 22°30' W 072°24'6321.0 110 / 171015.510.8 27.024.126.0
2017-May-24 21:00N 22°00' W 071°24'8 0.7 140 / 201014.6 5.4 29.024.827.0
2017-May-24 09:00N 22°06' W 071°18'4916.4 120 / 301015.6 5.4 26.023.126.0
2017-May-24 06:00N 22°54' W 071°30'10016.6 120 / 271016.310.8 26.023.126.0
2017-May-24 00:00N 24°30' W 072°00'5518.4 110 / 181017.010.8 25.020.526.0
2017-May-23 21:00N 25°24' W 072°12'4916.4 140 / 131015.810.8 26.021.526.0
2017-May-23 18:00N 26°12' W 072°24'10016.6 190 / 141017.810.8 26.019.926.0
2017-May-23 12:00N 27°48' W 072°54'5518.3 170 / 191017.910.8 24.019.424.0
2017-May-23 09:00N 28°42' W 073°06'5518.3 140 / 151016.6 5.4 23.019.924.0
2017-May-23 06:00N 29°36' W 073°18'11819.7 180 / 151017.810.8 23.018.325.0
2017-May-23 00:00N 31°30' W 073°54'5618.7 220 / 121018.210.8 23.016.526.0
2017-May-22 21:00N 32°24' W 074°12'6220.6 220 / 101017.0 5.4 25.017.025.0
2017-May-22 18:00N 33°24' W 074°30'16718.5 250 / 131017.210.8 25.018.825.0
2017-May-22 09:00N 36°06' W 075°18'4120.6 140 / 211019.5 5.4 20.016.718.0
2017-May-22 07:01N 36°42' W 075°41'119.2
2017-May-22 06:59N 36°43' W 075°42'918.6
2017-May-22 06:29N 36°50' W 075°49'816.5
2017-May-22 05:59N 36°55' W 075°57'715.0
2017-May-22 05:30N 37°01' W 076°02'4117.4
2017-May-22 03:09N 37°41' W 076°10'918.9
2017-May-22 02:39N 37°51' W 076°10'319.6
2017-May-22 02:30N 37°54' W 076°10'918.4
2017-May-22 02:00N 38°02' W 076°13'1019.3
2017-May-22 01:30N 38°12' W 076°15'1019.4
2017-May-22 01:00N 38°21' W 076°19'1019.4
2017-May-22 00:30N 38°30' W 076°24'918.3
2017-May-22 00:00N 38°39' W 076°25'1019.4
2017-May-21 23:30N 38°49' W 076°25'1019.8
2017-May-21 23:00N 38°58' W 076°23'814.9
2017-May-21 22:30N 39°06' W 076°24'612.8
2017-May-21 22:00N 39°11' W 076°28'611.1
2017-May-21 21:30N 39°15' W 076°34'2 3.8
2017-May-21 20:59N 39°16' W 076°36'0 0.0
2017-May-21 19:14N 39°16' W 076°36'0 0.0
2017-May-21 18:50N 39°16' W 076°36'0 0.0
2017-May-21 18:29N 39°16' W 076°36'0 0.0
2017-May-21 17:56N 39°16' W 076°36'0 0.0
2017-May-21 17:20N 39°16' W 076°36'0 0.0
2017-May-21 16:29N 39°16' W 076°36'0 0.0
2017-May-21 15:59N 39°16' W 076°36'0 0.0
2017-May-21 15:26N 39°16' W 076°36'0 0.0
2017-May-21 12:41N 39°16' W 076°36'0 0.0
2017-May-21 12:30N 39°16' W 076°36'2 3.9
2017-May-21 12:01N 39°15' W 076°34'5 9.3
2017-May-21 11:31N 39°12' W 076°29'612.0
2017-May-21 11:00N 39°08' W 076°24'714.9
2017-May-21 10:30N 39°00' W 076°23'817.0
2017-May-21 10:00N 38°52' W 076°24'1020.6
2017-May-21 09:30N 38°42' W 076°26'1020.1
2017-May-21 09:00N 38°31' W 076°25'1121.2
2017-May-21 08:30N 38°22' W 076°19'1121.3
2017-May-21 07:59N 38°11' W 076°14'6517.0
2017-May-21 04:09N 37°07' W 076°07'215.3
2017-May-21 04:00N 37°04' W 076°06'715.1
2017-May-21 03:30N 36°59' W 076°00'5 9.7
2017-May-21 03:00N 36°56' W 075°55'813.9
2017-May-21 02:26N 36°51' W 075°48'9918.1
2017-May-20 21:00N 35°18' W 075°06'914.5 360 / 151020.1 1.1 24.019.423.0
2017-May-20 20:20N 35°09' W 075°11'2923.5
2017-May-20 19:05N 34°41' W 075°20'224.4
2017-May-20 19:00N 34°39' W 075°21'1223.7
2017-May-20 18:30N 34°28' W 075°25'1224.8
2017-May-20 18:00N 34°17' W 075°32'5353.1
2017-May-20 18:00N 34°12' W 075°30'1322.8 280 / 181019.627.0 27.021.027.0
2017-May-20 17:26N 34°06' W 075°43'1024.8
2017-May-20 17:00N 33°58' W 075°52'1224.7
2017-May-20 16:30N 33°48' W 076°01'4322.9
2017-May-20 14:37N 33°15' W 076°35'523.0
2017-May-20 14:25N 33°12' W 076°38'6526.6
2017-May-20 12:00N 32°24' W 077°30'6220.7 310 / 81020.710.8 25.018.825.0
2017-May-20 09:00N 31°42' W 078°24'4923.9 170 / 121020.1 5.4 24.017.727.0
2017-May-20 06:57N 31°13' W 079°10'2627.1
2017-May-20 06:00N 30°48' W 079°18'13322.2 140 / 201019.410.8 26.023.127.0
2017-May-20 00:00N 28°36' W 079°36'8026.5 090 / 201017.510.8 26.021.528.0
2017-May-19 21:00N 27°18' W 079°18'   100 / 251016.410.8 28.022.127.0
Track history (hours):
 
Tides and Currents Weather Stations Pressure Air Temp Water Temp Dewpoint Dewpoint Depression Visibility Wind Speed Wind Dir Waves Ship Positions

Carnival Pride

Operator: Carnival Cruise Lines

Last reported at 2017-May-29 12:00 UTC. Time now 2017-May-29 17:11 UTC.
Position N 35°12' W 075°00'.

Type: Ship. MMSI: 354215000.

Wind from 270 at 25 knots

Barometer 1011.4 mb
Air temperature 24.0 ° C
Visibility: greater than 10.8 NM
Dewpoint 21.0 ° C
Water temperature 17.0 ° C

Date/timePositionNaut miles runAvg speedWind from/ knotsBaromVisibWave heightAir tempDewpointWater temp
2017-May-29 12:00N 35°12' W 075°00'6220.6 270 / 251011.410.8 24.021.017.0
2017-May-29 09:00N 36°12' W 075°18'3719.8 340 / 51009.1 5.4 19.017.417.0
2017-May-29 07:07N 36°43' W 075°42'419.7
2017-May-29 06:54N 36°47' W 075°45'718.8
2017-May-29 06:30N 36°52' W 075°52'815.3
2017-May-29 06:00N 36°57' W 075°59'714.5
2017-May-29 05:30N 37°03' W 076°05'9418.1
2017-May-29 00:19N 38°35' W 076°26'619.3
2017-May-28 23:59N 38°42' W 076°26'918.8
2017-May-28 23:30N 38°50' W 076°24'918.7
2017-May-28 23:00N 38°60' W 076°23'714.4
2017-May-28 22:30N 39°07' W 076°24'612.5
2017-May-28 22:00N 39°12' W 076°29'510.6
2017-May-28 21:30N 39°15' W 076°34'2 3.0
2017-May-28 20:59N 39°16' W 076°36'0 0.0
2017-May-28 20:29N 39°16' W 076°36'0 0.0
2017-May-28 19:41N 39°16' W 076°36'0 0.0
2017-May-28 19:29N 39°16' W 076°36'0 0.0
2017-May-28 18:53N 39°16' W 076°36'0 0.0
2017-May-28 18:26N 39°16' W 076°36'0 0.0
2017-May-28 17:59N 39°16' W 076°36'0 0.0
2017-May-28 17:29N 39°16' W 076°36'0 0.0
2017-May-28 16:56N 39°16' W 076°36'0 0.0
2017-May-28 16:29N 39°16' W 076°36'0 0.0
2017-May-28 15:59N 39°16' W 076°36'0 0.0
2017-May-28 15:23N 39°16' W 076°36'0 0.0
2017-May-28 14:59N 39°16' W 076°36'0 0.0
2017-May-28 14:29N 39°16' W 076°36'0 0.0
2017-May-28 13:28N 39°16' W 076°36'0 0.0
2017-May-28 12:55N 39°16' W 076°36'0 0.0
2017-May-28 12:28N 39°16' W 076°36'1 1.1
2017-May-28 12:00N 39°16' W 076°35'4 7.5
2017-May-28 11:30N 39°13' W 076°32'510.9
2017-May-28 11:00N 39°10' W 076°26'713.3
2017-May-28 10:30N 39°04' W 076°24'815.0
2017-May-28 10:01N 38°56' W 076°23'816.9
2017-May-28 09:30N 38°48' W 076°25'917.4
2017-May-28 09:01N 38°39' W 076°25'917.3
2017-May-28 08:30N 38°31' W 076°24'1018.5
2017-May-28 07:57N 38°21' W 076°19'818.7
2017-May-28 07:30N 38°14' W 076°15'918.4
2017-May-28 07:00N 38°05' W 076°13'918.3
2017-May-28 06:30N 37°56' W 076°10'4917.0
2017-May-28 03:37N 37°07' W 076°07'219.1
2017-May-28 03:30N 37°05' W 076°06'918.4
2017-May-28 03:00N 36°57' W 075°59'713.5
2017-May-28 02:30N 36°53' W 075°53'815.3
2017-May-28 02:00N 36°49' W 075°45'9018.0
2017-May-27 21:00N 35°24' W 075°06'629.3 240 / 271012.410.8 26.018.225.0
2017-May-27 20:47N 35°19' W 075°10'621.3
2017-May-27 20:30N 35°13' W 075°10'1121.7
2017-May-27 20:00N 35°02' W 075°10'1323.1
2017-May-27 19:26N 34°50' W 075°16'1023.9
2017-May-27 19:00N 34°40' W 075°20'1324.4
2017-May-27 18:30N 34°28' W 075°25'1324.6
2017-May-27 17:59N 34°17' W 075°32'1225.2
2017-May-27 17:31N 34°08' W 075°41'1325.7
2017-May-27 17:00N 33°58' W 075°51'1325.7
2017-May-27 16:30N 33°48' W 076°01'1425.0
2017-May-27 15:56N 33°38' W 076°12'1124.1
2017-May-27 15:28N 33°29' W 076°21'1123.3
2017-May-27 15:00N 33°21' W 076°30'2423.1
2017-May-27 13:56N 33°02' W 076°49'1022.2
2017-May-27 13:30N 32°55' W 076°56'1921.5
2017-May-27 12:38N 32°41' W 077°12'421.6
2017-May-27 12:26N 32°39' W 077°16'921.9
2017-May-27 12:00N 32°33' W 077°25'10642.9
2017-May-27 12:00N 32°24' W 077°30'4619.7 290 / 151016.610.8 25.017.027.0
2017-May-27 09:40N 31°57' W 078°14'824.0
2017-May-27 09:21N 31°52' W 078°21'3023.7
2017-May-27 08:06N 31°33' W 078°47'223.6
2017-May-27 07:59N 31°31' W 078°50'1924.0
2017-May-27 07:13N 31°19' W 079°06'524.4
2017-May-27 07:00N 31°15' W 079°09'2827.3
2017-May-27 06:00N 30°48' W 079°18'13923.1 240 / 121017.810.8 25.010.827.0
2017-May-27 00:00N 28°30' W 079°36'7324.3 070 / 81016.910.8 25.015.125.0
2017-May-26 21:00N 27°18' W 079°24'120 8.0 050 / 81016.510.8 27.019.325.0
2017-May-26 06:00N 26°00' W 077°42'9415.6 210 / 301015.610.8 27.024.127.0
2017-May-26 00:00N 25°24' W 076°06'113 7.5 200 / 171014.710.8 27.022.627.0
2017-May-25 09:00N 23°42' W 075°12'17018.9 170 / 151015.4 5.4 24.022.526.0
2017-May-25 00:00N 22°30' W 072°24'6321.0 110 / 171015.510.8 27.024.126.0
2017-May-24 21:00N 22°00' W 071°24'8 0.7 140 / 201014.6 5.4 29.024.827.0
2017-May-24 09:00N 22°06' W 071°18'4916.4 120 / 301015.6 5.4 26.023.126.0
2017-May-24 06:00N 22°54' W 071°30'10016.6 120 / 271016.310.8 26.023.126.0
2017-May-24 00:00N 24°30' W 072°00'5518.4 110 / 181017.010.8 25.020.526.0
2017-May-23 21:00N 25°24' W 072°12'4916.4 140 / 131015.810.8 26.021.526.0
2017-May-23 18:00N 26°12' W 072°24'10016.6 190 / 141017.810.8 26.019.926.0
2017-May-23 12:00N 27°48' W 072°54'5518.3 170 / 191017.910.8 24.019.424.0
2017-May-23 09:00N 28°42' W 073°06'5518.3 140 / 151016.6 5.4 23.019.924.0
2017-May-23 06:00N 29°36' W 073°18'11819.7 180 / 151017.810.8 23.018.325.0
2017-May-23 00:00N 31°30' W 073°54'5618.7 220 / 121018.210.8 23.016.526.0
2017-May-22 21:00N 32°24' W 074°12'6220.6 220 / 101017.0 5.4 25.017.025.0
2017-May-22 18:00N 33°24' W 074°30'16718.5 250 / 131017.210.8 25.018.825.0
2017-May-22 09:00N 36°06' W 075°18'4120.6 140 / 211019.5 5.4 20.016.718.0
2017-May-22 07:01N 36°42' W 075°41'119.2
2017-May-22 06:59N 36°43' W 075°42'918.6
2017-May-22 06:29N 36°50' W 075°49'816.5
2017-May-22 05:59N 36°55' W 075°57'715.0
2017-May-22 05:30N 37°01' W 076°02'4117.4
2017-May-22 03:09N 37°41' W 076°10'918.9
2017-May-22 02:39N 37°51' W 076°10'319.6
2017-May-22 02:30N 37°54' W 076°10'918.4
2017-May-22 02:00N 38°02' W 076°13'1019.3
2017-May-22 01:30N 38°12' W 076°15'1019.4
2017-May-22 01:00N 38°21' W 076°19'1019.4
2017-May-22 00:30N 38°30' W 076°24'918.3
2017-May-22 00:00N 38°39' W 076°25'1019.4
2017-May-21 23:30N 38°49' W 076°25'1019.8
2017-May-21 23:00N 38°58' W 076°23'814.9
2017-May-21 22:30N 39°06' W 076°24'612.8
2017-May-21 22:00N 39°11' W 076°28'611.1
2017-May-21 21:30N 39°15' W 076°34'2 3.8
2017-May-21 20:59N 39°16' W 076°36'0 0.0
2017-May-21 19:14N 39°16' W 076°36'0 0.0
2017-May-21 18:50N 39°16' W 076°36'0 0.0
2017-May-21 18:29N 39°16' W 076°36'0 0.0
2017-May-21 17:56N 39°16' W 076°36'0 0.0
2017-May-21 17:20N 39°16' W 076°36'0 0.0
2017-May-21 16:29N 39°16' W 076°36'0 0.0
2017-May-21 15:59N 39°16' W 076°36'0 0.0
2017-May-21 15:26N 39°16' W 076°36'0 0.0
2017-May-21 12:41N 39°16' W 076°36'0 0.0
2017-May-21 12:30N 39°16' W 076°36'2 3.9
2017-May-21 12:01N 39°15' W 076°34'5 9.3
2017-May-21 11:31N 39°12' W 076°29'612.0
2017-May-21 11:00N 39°08' W 076°24'714.9
2017-May-21 10:30N 39°00' W 076°23'817.0
2017-May-21 10:00N 38°52' W 076°24'1020.6
2017-May-21 09:30N 38°42' W 076°26'1020.1
2017-May-21 09:00N 38°31' W 076°25'1121.2
2017-May-21 08:30N 38°22' W 076°19'1121.3
2017-May-21 07:59N 38°11' W 076°14'6517.0
2017-May-21 04:09N 37°07' W 076°07'215.3
2017-May-21 04:00N 37°04' W 076°06'715.1
2017-May-21 03:30N 36°59' W 076°00'5 9.7
2017-May-21 03:00N 36°56' W 075°55'813.9
2017-May-21 02:26N 36°51' W 075°48'9918.1
2017-May-20 21:00N 35°18' W 075°06'914.5 360 / 151020.1 1.1 24.019.423.0
2017-May-20 20:20N 35°09' W 075°11'2923.5
2017-May-20 19:05N 34°41' W 075°20'224.4
2017-May-20 19:00N 34°39' W 075°21'1223.7
2017-May-20 18:30N 34°28' W 075°25'1224.8
2017-May-20 18:00N 34°17' W 075°32'5353.1
2017-May-20 18:00N 34°12' W 075°30'1322.8 280 / 181019.627.0 27.021.027.0
2017-May-20 17:26N 34°06' W 075°43'1024.8
2017-May-20 17:00N 33°58' W 075°52'1224.7
2017-May-20 16:30N 33°48' W 076°01'4322.9
2017-May-20 14:37N 33°15' W 076°35'523.0
2017-May-20 14:25N 33°12' W 076°38'6526.6
2017-May-20 12:00N 32°24' W 077°30'6220.7 310 / 81020.710.8 25.018.825.0
2017-May-20 09:00N 31°42' W 078°24'4923.9 170 / 121020.1 5.4 24.017.727.0
2017-May-20 06:57N 31°13' W 079°10'2627.1
2017-May-20 06:00N 30°48' W 079°18'13322.2 140 / 201019.410.8 26.023.127.0
2017-May-20 00:00N 28°36' W 079°36'8026.5 090 / 201017.510.8 26.021.528.0
2017-May-19 21:00N 27°18' W 079°18'   100 / 251016.410.8 28.022.127.0

Dump ship's entire track history